Time;durP1;ratioP1;P1;durP2;ratioP2;P2;SDS_P1;SDS_P2;PMS_P1;PMS_P2;Temp;Humidity;BMP_temperature;BMP_pressure;BME280_temperature;BME280_humidity;BME280_pressure;Samples;Min_cycle;Max_cycle;Signal;HPM_P1;HPM_P2
2021/04/22 00:01:59;;;;;;;67.70;42.17;;;9.90;99.90;;;;;;5026080;28;20242;-78
2021/04/22 00:04:26;;;;;;;65.97;42.20;;;9.90;99.90;;;;;;5028111;28;20299;-78
2021/04/22 00:06:53;;;;;;;69.43;41.27;;;9.90;99.90;;;;;;5033250;28;20698;-77
2021/04/22 00:09:20;;;;;;;69.67;41.77;;;9.90;99.90;;;;;;5027522;28;20222;-78
2021/04/22 00:11:47;;;;;;;65.43;42.00;;;9.90;99.90;;;;;;5015152;28;20290;-78
2021/04/22 00:14:15;;;;;;;69.40;41.27;;;9.80;99.90;;;;;;5013879;28;20329;-78
2021/04/22 00:16:42;;;;;;;69.43;42.20;;;9.80;99.90;;;;;;5013799;28;20297;-78
2021/04/22 00:19:09;;;;;;;73.43;42.10;;;9.80;99.90;;;;;;5014498;28;20236;-78
2021/04/22 00:21:35;;;;;;;68.13;41.57;;;9.70;99.90;;;;;;5014418;28;20292;-78
2021/04/22 00:24:02;;;;;;;69.50;42.00;;;9.70;99.90;;;;;;5015114;28;20291;-78
2021/04/22 00:26:29;;;;;;;68.87;42.37;;;9.70;99.90;;;;;;5014530;28;20236;-78
2021/04/22 00:28:56;;;;;;;65.93;41.30;;;9.60;99.90;;;;;;5014315;28;20241;-78
2021/04/22 00:31:22;;;;;;;66.73;41.30;;;9.60;99.90;;;;;;5025592;28;20299;-78
2021/04/22 00:33:49;;;;;;;67.07;41.77;;;9.50;99.90;;;;;;5013881;28;20294;-78
2021/04/22 00:36:16;;;;;;;66.93;41.60;;;9.50;99.90;;;;;;5031780;28;20286;-77
2021/04/22 00:38:42;;;;;;;72.63;42.43;;;9.50;99.90;;;;;;5033404;28;20360;-78
2021/04/22 00:41:09;;;;;;;70.90;40.77;;;9.40;99.90;;;;;;5018926;28;20205;-78
2021/04/22 00:43:37;;;;;;;72.73;42.97;;;9.40;99.90;;;;;;5021450;28;20337;-77
2021/04/22 00:46:04;;;;;;;65.70;41.60;;;9.40;99.90;;;;;;5013839;28;20753;-78
2021/04/22 00:48:30;;;;;;;70.03;42.47;;;9.40;99.90;;;;;;5023986;28;20727;-77
2021/04/22 00:50:57;;;;;;;67.87;40.90;;;9.30;99.90;;;;;;5032614;28;20686;-78
2021/04/22 00:53:25;;;;;;;66.47;40.63;;;9.30;99.90;;;;;;5013816;28;20203;-78
2021/04/22 00:55:52;;;;;;;70.20;42.30;;;9.30;99.90;;;;;;5024204;28;20287;-77
2021/04/22 00:58:19;;;;;;;72.50;43.80;;;9.20;99.90;;;;;;5033952;28;20224;-77
2021/04/22 01:00:51;;;;;;;73.10;41.70;;;9.20;99.90;;;;;;5027315;28;20283;-77
2021/04/22 01:03:18;;;;;;;73.00;42.70;;;9.20;99.90;;;;;;5010485;28;20296;-77
2021/04/22 01:05:47;;;;;;;66.17;41.13;;;9.10;99.90;;;;;;5032861;28;20760;-77
2021/04/22 01:08:13;;;;;;;70.73;40.83;;;9.10;99.90;;;;;;5021132;28;20252;-77
2021/04/22 01:10:39;;;;;;;67.70;42.03;;;9.00;99.90;;;;;;5013733;28;20648;-77
2021/04/22 01:13:06;;;;;;;70.13;42.40;;;9.00;99.90;;;;;;5002730;28;20325;-78
2021/04/22 01:15:33;;;;;;;68.83;41.50;;;9.00;99.90;;;;;;5013960;28;20628;-78
2021/04/22 01:18:01;;;;;;;71.63;42.63;;;9.00;99.90;;;;;;5024514;28;20310;-77
2021/04/22 01:20:30;;;;;;;66.57;41.20;;;9.00;99.90;;;;;;5031970;28;20235;-77
2021/04/22 01:23:00;;;;;;;69.70;42.10;;;9.00;99.90;;;;;;5025100;28;20236;-78
2021/04/22 01:25:29;;;;;;;69.47;41.97;;;9.00;99.90;;;;;;5013235;28;20248;-77
2021/04/22 01:27:57;;;;;;;71.10;42.60;;;9.00;99.90;;;;;;5026390;28;20622;-77
2021/04/22 01:30:26;;;;;;;66.17;40.50;;;8.90;99.90;;;;;;5032930;28;20296;-77
2021/04/22 01:32:52;;;;;;;69.40;41.67;;;8.90;99.90;;;;;;5018405;28;20738;-78
2021/04/22 01:35:21;;;;;;;73.30;42.73;;;8.80;99.90;;;;;;5022903;28;20297;-77
2021/04/22 01:37:48;;;;;;;68.50;41.97;;;8.90;99.90;;;;;;5032476;28;20704;-78
2021/04/22 01:40:18;;;;;;;67.80;40.37;;;8.90;99.90;;;;;;5032449;28;20287;-77
2021/04/22 01:42:44;;;;;;;69.67;42.00;;;8.80;99.90;;;;;;5032878;28;20292;-77
2021/04/22 01:45:14;;;;;;;68.87;41.53;;;8.80;99.90;;;;;;5014143;28;20714;-77
2021/04/22 01:47:41;;;;;;;72.43;42.30;;;8.80;99.90;;;;;;5022001;28;20219;-77
2021/04/22 01:50:11;;;;;;;69.90;41.40;;;8.70;99.90;;;;;;5023591;28;20242;-77
2021/04/22 01:52:38;;;;;;;69.57;40.73;;;8.70;99.90;;;;;;5032683;28;20639;-77
2021/04/22 01:55:06;;;;;;;75.43;43.50;;;8.70;99.90;;;;;;5031266;28;20747;-77
2021/04/22 01:57:34;;;;;;;71.90;41.93;;;8.70;99.90;;;;;;5031964;28;20291;-77
2021/04/22 02:00:00;;;;;;;73.50;43.20;;;8.70;99.90;;;;;;5021290;28;20204;-77
2021/04/22 02:02:26;;;;;;;72.47;41.80;;;8.70;99.90;;;;;;5012337;28;20340;-77
2021/04/22 02:04:53;;;;;;;72.77;41.93;;;8.70;99.90;;;;;;5014200;28;20294;-77
2021/04/22 02:07:19;;;;;;;72.53;41.53;;;8.70;99.90;;;;;;5012067;28;20215;-77
2021/04/22 02:09:46;;;;;;;69.80;42.53;;;8.60;99.90;;;;;;5012322;28;20206;-77
2021/04/22 02:12:12;;;;;;;74.67;43.53;;;8.60;99.90;;;;;;5011900;28;20310;-77
2021/04/22 02:14:39;;;;;;;71.80;41.30;;;8.60;99.90;;;;;;5012191;28;20712;-78
2021/04/22 02:17:06;;;;;;;72.30;42.67;;;8.50;99.90;;;;;;5019994;28;20302;-77
2021/04/22 02:19:32;;;;;;;72.63;42.00;;;8.50;99.90;;;;;;5031528;28;20311;-77
2021/04/22 02:21:59;;;;;;;70.70;42.83;;;8.50;99.90;;;;;;5032212;28;20294;-78
2021/04/22 02:24:25;;;;;;;71.07;41.40;;;8.40;99.90;;;;;;5032078;28;20203;-78
2021/04/22 02:26:51;;;;;;;72.83;42.77;;;8.40;99.90;;;;;;5031912;28;20291;-78
2021/04/22 02:29:18;;;;;;;74.13;42.33;;;8.30;99.90;;;;;;5031534;28;20317;-78
2021/04/22 02:31:45;;;;;;;69.70;41.13;;;8.30;99.90;;;;;;5030700;28;20209;-78
2021/04/22 02:34:11;;;;;;;77.23;44.00;;;8.30;99.90;;;;;;5032234;28;20303;-78
2021/04/22 02:36:38;;;;;;;72.97;41.53;;;8.30;99.90;;;;;;5029509;28;20235;-78
2021/04/22 02:39:06;;;;;;;72.73;43.73;;;8.30;99.90;;;;;;5012119;28;20312;-78
2021/04/22 02:41:32;;;;;;;67.73;42.17;;;8.30;99.90;;;;;;5025449;28;20671;-78
2021/04/22 02:43:59;;;;;;;74.60;42.27;;;8.40;99.90;;;;;;5020820;28;20286;-78
2021/04/22 02:46:25;;;;;;;72.60;43.20;;;8.30;99.90;;;;;;5026127;28;20299;-78
2021/04/22 02:48:52;;;;;;;73.67;43.20;;;8.30;99.90;;;;;;5021912;28;20284;-78
2021/04/22 02:51:19;;;;;;;66.37;39.40;;;8.30;99.90;;;;;;5012057;28;20296;-77
2021/04/22 02:53:45;;;;;;;69.57;41.17;;;8.30;99.90;;;;;;5020161;28;20356;-78
2021/04/22 02:56:12;;;;;;;72.70;42.20;;;8.30;99.90;;;;;;5012429;28;20297;-78
2021/04/22 02:58:38;;;;;;;75.53;42.37;;;8.20;99.90;;;;;;5012081;28;20263;-78
2021/04/22 03:01:05;;;;;;;70.60;41.40;;;8.10;99.90;;;;;;5011951;28;20299;-78
2021/04/22 03:03:31;;;;;;;73.80;41.33;;;8.10;99.90;;;;;;5016474;28;20283;-78
2021/04/22 03:05:59;;;;;;;75.43;43.00;;;8.00;99.90;;;;;;5011265;28;20219;-78
2021/04/22 03:08:26;;;;;;;73.60;41.30;;;8.10;99.90;;;;;;5011938;28;20288;-78
2021/04/22 03:10:53;;;;;;;71.43;42.13;;;8.10;99.90;;;;;;5012164;28;20275;-77
2021/04/22 03:13:19;;;;;;;75.17;41.60;;;8.20;99.90;;;;;;5023637;28;20315;-78
2021/04/22 03:15:46;;;;;;;65.73;40.23;;;8.20;99.90;;;;;;5011772;28;20304;-77
2021/04/22 03:18:12;;;;;;;71.27;42.17;;;8.10;99.90;;;;;;5017889;28;20315;-78
2021/04/22 03:20:40;;;;;;;67.77;41.33;;;8.10;99.90;;;;;;5026354;28;20336;-78
2021/04/22 03:23:07;;;;;;;67.60;39.63;;;8.10;99.90;;;;;;5011710;28;20339;-78
2021/04/22 03:25:34;;;;;;;70.80;41.03;;;8.10;99.90;;;;;;5015038;28;20290;-78
2021/04/22 03:28:00;;;;;;;71.73;39.33;;;8.10;99.90;;;;;;5011578;28;20688;-77
2021/04/22 03:30:29;;;;;;;70.03;38.97;;;8.10;99.90;;;;;;5015231;28;20238;-77
2021/04/22 03:32:55;;;;;;;69.77;40.67;;;8.10;99.90;;;;;;5031212;28;20290;-78
2021/04/22 03:35:22;;;;;;;68.83;40.43;;;8.00;99.90;;;;;;5025486;28;20931;-78
2021/04/22 03:37:49;;;;;;;72.27;40.37;;;8.00;99.90;;;;;;5011516;28;22175;-79
2021/04/22 03:40:18;;;;;;;68.93;40.07;;;7.90;99.90;;;;;;5011833;28;20292;-78
2021/04/22 03:42:45;;;;;;;66.10;39.07;;;7.80;99.90;;;;;;5011410;28;20744;-77
2021/04/22 03:45:13;;;;;;;71.00;40.83;;;7.80;99.90;;;;;;5011546;28;20296;-78
2021/04/22 03:47:40;;;;;;;68.53;38.83;;;7.80;99.90;;;;;;5011544;28;20205;-78
2021/04/22 03:50:09;;;;;;;67.90;39.17;;;7.80;99.90;;;;;;5012114;28;20236;-78
2021/04/22 03:52:36;;;;;;;67.97;38.13;;;7.90;99.90;;;;;;5022453;28;20291;-78
2021/04/22 03:55:04;;;;;;;67.23;37.07;;;7.80;99.90;;;;;;5034737;28;20292;-78
2021/04/22 03:57:32;;;;;;;64.63;37.63;;;7.80;99.90;;;;;;5034318;28;20756;-78
2021/04/22 03:59:58;;;;;;;68.80;38.57;;;7.70;99.90;;;;;;5020799;28;20280;-78
2021/04/22 04:02:24;;;;;;;65.43;38.13;;;7.70;99.90;;;;;;5014687;28;20748;-78
2021/04/22 04:04:51;;;;;;;58.57;36.27;;;7.70;99.90;;;;;;5015242;28;20243;-78
2021/04/22 04:07:17;;;;;;;64.90;38.03;;;7.70;99.90;;;;;;5014550;28;20296;-78
2021/04/22 04:09:44;;;;;;;67.37;37.20;;;7.60;99.90;;;;;;5015274;28;20287;-78
2021/04/22 04:12:10;;;;;;;59.13;36.03;;;7.70;99.90;;;;;;5014658;28;20319;-78
2021/04/22 04:14:38;;;;;;;67.20;38.10;;;7.60;99.90;;;;;;5014939;28;20200;-77
2021/04/22 04:17:04;;;;;;;65.63;37.10;;;7.60;99.90;;;;;;5025192;28;20282;-78
2021/04/22 04:19:31;;;;;;;68.87;37.00;;;7.50;99.90;;;;;;5016639;28;20228;-78
2021/04/22 04:21:58;;;;;;;64.30;36.13;;;7.50;99.90;;;;;;5014212;28;20295;-78
2021/04/22 04:24:24;;;;;;;62.47;36.80;;;7.50;99.90;;;;;;5014219;28;20232;-78
2021/04/22 04:26:51;;;;;;;64.93;37.10;;;7.50;99.90;;;;;;5014970;28;20235;-78
2021/04/22 04:29:18;;;;;;;66.60;37.00;;;7.50;99.90;;;;;;5017868;28;20229;-77
2021/04/22 04:31:45;;;;;;;59.70;35.37;;;7.50;99.90;;;;;;5031871;28;20290;-78
2021/04/22 04:34:11;;;;;;;68.80;37.50;;;7.50;99.90;;;;;;5013999;28;20347;-77
2021/04/22 04:36:43;;;;;;;60.07;36.07;;;7.40;99.90;;;;;;5014262;28;20255;-78
2021/04/22 04:39:10;;;;;;;64.23;36.43;;;7.40;99.90;;;;;;5014146;28;20228;-78
2021/04/22 04:41:38;;;;;;;65.40;37.00;;;7.40;99.90;;;;;;5014240;28;20210;-78
2021/04/22 04:44:05;;;;;;;61.83;37.10;;;7.30;99.90;;;;;;5020022;28;20205;-78
2021/04/22 04:46:32;;;;;;;62.43;35.27;;;7.30;99.90;;;;;;5033132;28;20209;-78
2021/04/22 04:49:00;;;;;;;65.23;36.47;;;7.30;99.90;;;;;;5020794;28;20236;-78
2021/04/22 04:51:26;;;;;;;60.53;35.17;;;7.30;99.90;;;;;;5022101;28;20209;-78
2021/04/22 04:53:53;;;;;;;63.70;35.10;;;7.30;99.90;;;;;;5014007;28;20575;-78
2021/04/22 04:56:20;;;;;;;68.67;36.30;;;7.30;99.90;;;;;;5013940;28;20298;-77
2021/04/22 04:58:47;;;;;;;62.53;35.23;;;7.20;99.90;;;;;;5017137;28;20219;-78
2021/04/22 05:01:13;;;;;;;62.63;35.50;;;7.30;99.90;;;;;;5032774;28;20290;-78
2021/04/22 05:03:39;;;;;;;60.23;35.10;;;7.30;99.90;;;;;;5013212;28;20255;-78
2021/04/22 05:06:07;;;;;;;64.17;34.83;;;7.30;99.90;;;;;;5015905;28;20295;-77
2021/04/22 05:08:34;;;;;;;62.83;34.67;;;7.40;99.90;;;;;;5015398;28;20211;-78
2021/04/22 05:11:01;;;;;;;60.97;34.43;;;7.40;99.90;;;;;;5016418;28;20584;-78
2021/04/22 05:13:27;;;;;;;62.47;33.97;;;7.40;99.90;;;;;;5033140;28;20326;-78
2021/04/22 05:15:56;;;;;;;60.10;34.07;;;7.40;99.90;;;;;;5028128;28;20283;-78
2021/04/22 05:18:22;;;;;;;59.40;34.30;;;7.40;99.90;;;;;;5013395;28;20286;-78
2021/04/22 05:20:49;;;;;;;60.23;33.77;;;7.40;99.90;;;;;;5013437;28;20255;-78
2021/04/22 05:23:16;;;;;;;59.40;33.10;;;7.40;99.90;;;;;;5013473;28;20283;-77
2021/04/22 05:25:42;;;;;;;54.07;33.13;;;7.40;99.90;;;;;;5013412;28;20204;-78
2021/04/22 05:28:09;;;;;;;59.40;34.37;;;7.40;99.90;;;;;;5013329;28;20283;-78
2021/04/22 05:30:35;;;;;;;57.10;33.13;;;7.50;99.90;;;;;;5012814;28;20287;-78
2021/04/22 05:33:02;;;;;;;57.17;33.20;;;7.50;99.90;;;;;;5015918;28;20231;-77
2021/04/22 05:35:29;;;;;;;57.80;33.37;;;7.60;99.90;;;;;;5032932;28;20738;-78
2021/04/22 05:37:55;;;;;;;57.73;34.23;;;7.60;99.90;;;;;;5032871;28;20287;-78
2021/04/22 05:40:22;;;;;;;49.67;30.93;;;7.60;99.90;;;;;;5033195;28;20236;-77
2021/04/22 05:42:49;;;;;;;52.80;32.37;;;7.70;99.90;;;;;;5031032;28;20255;-78
2021/04/22 05:45:17;;;;;;;55.50;31.60;;;7.80;99.90;;;;;;5019067;28;20240;-78
2021/04/22 05:47:45;;;;;;;50.13;30.43;;;7.80;99.90;;;;;;5012825;28;20603;-78
2021/04/22 05:50:13;;;;;;;52.60;30.77;;;7.90;99.90;;;;;;5012969;28;20205;-77
2021/04/22 05:52:39;;;;;;;52.07;31.13;;;8.00;99.90;;;;;;5012617;28;20239;-78
2021/04/22 05:55:07;;;;;;;52.17;31.23;;;8.20;99.90;;;;;;5013096;28;20276;-77
2021/04/22 05:57:35;;;;;;;48.17;29.73;;;8.40;99.90;;;;;;4995531;28;20200;-78
2021/04/22 06:00:03;;;;;;;45.00;29.27;;;8.60;99.90;;;;;;5012778;28;20257;-78
2021/04/22 06:02:29;;;;;;;45.87;29.30;;;8.80;99.90;;;;;;5012942;28;20293;-78
2021/04/22 06:04:56;;;;;;;47.10;28.33;;;8.90;99.90;;;;;;5012563;28;20294;-78
2021/04/22 06:07:22;;;;;;;44.43;27.17;;;9.00;99.90;;;;;;5026774;28;20239;-78
2021/04/22 06:09:48;;;;;;;43.50;27.67;;;9.10;99.90;;;;;;5013799;28;20235;-78
2021/04/22 06:12:15;;;;;;;40.73;27.50;;;9.40;99.90;;;;;;5011995;28;20724;-78
2021/04/22 06:14:42;;;;;;;41.87;25.40;;;9.60;99.90;;;;;;5012120;28;20299;-78
2021/04/22 06:17:09;;;;;;;44.73;27.50;;;9.80;99.90;;;;;;5011990;28;20575;-78
2021/04/22 06:19:36;;;;;;;41.73;26.07;;;10.00;99.90;;;;;;5031337;28;20262;-78
2021/04/22 06:22:02;;;;;;;35.63;25.53;;;10.30;99.90;;;;;;5031672;28;20290;-78
2021/04/22 06:24:29;;;;;;;39.50;25.07;;;10.40;99.90;;;;;;5031446;28;20726;-78
2021/04/22 06:26:55;;;;;;;38.43;24.40;;;10.80;99.90;;;;;;5032065;28;20254;-78
2021/04/22 06:29:22;;;;;;;38.30;24.00;;;10.70;99.90;;;;;;5032296;28;20291;-78
2021/04/22 06:31:50;;;;;;;39.23;23.57;;;11.20;99.90;;;;;;5031698;28;20298;-78
2021/04/22 06:34:16;;;;;;;39.43;24.70;;;11.20;99.90;;;;;;5024940;28;20198;-78
2021/04/22 06:36:44;;;;;;;35.53;24.03;;;11.70;99.90;;;;;;5012279;28;20742;-79
2021/04/22 06:39:11;;;;;;;34.47;22.73;;;11.80;99.90;;;;;;5011872;28;20726;-78
2021/04/22 06:41:38;;;;;;;38.27;23.03;;;11.70;99.90;;;;;;5013515;28;20240;-78
2021/04/22 06:44:05;;;;;;;34.90;22.77;;;12.10;99.90;;;;;;5031768;28;20235;-78
2021/04/22 06:46:33;;;;;;;32.77;22.73;;;12.20;99.90;;;;;;5031993;28;20290;-79
2021/04/22 06:49:01;;;;;;;34.33;21.60;;;12.10;99.90;;;;;;5031822;28;20200;-78
2021/04/22 06:51:27;;;;;;;32.33;22.00;;;12.80;99.90;;;;;;5031942;28;20287;-78
2021/04/22 06:53:53;;;;;;;35.83;22.60;;;12.60;99.90;;;;;;5030497;28;20664;-79
2021/04/22 06:56:20;;;;;;;31.77;22.20;;;12.60;99.90;;;;;;5025523;28;20303;-79
2021/04/22 06:58:46;;;;;;;28.97;21.97;;;12.90;99.90;;;;;;5017155;28;20315;-79
2021/04/22 07:01:13;;;;;;;34.73;21.30;;;12.90;99.90;;;;;;5012195;28;20228;-79
2021/04/22 07:03:39;;;;;;;29.60;20.70;;;13.30;99.90;;;;;;5016453;28;20279;-78
2021/04/22 07:06:07;;;;;;;27.07;19.83;;;13.30;99.90;;;;;;5022309;28;20233;-79
2021/04/22 07:08:33;;;;;;;30.27;21.73;;;13.40;99.90;;;;;;5031078;28;20680;-79
2021/04/22 07:11:00;;;;;;;30.47;21.83;;;13.50;99.90;;;;;;5031762;28;20283;-79
2021/04/22 07:13:26;;;;;;;29.47;20.00;;;13.70;99.90;;;;;;5018251;28;20240;-80
2021/04/22 07:15:53;;;;;;;26.30;19.57;;;13.90;99.90;;;;;;5012185;28;20288;-80
2021/04/22 07:18:19;;;;;;;29.50;21.10;;;14.90;99.90;;;;;;5011384;28;20270;-80
2021/04/22 07:20:45;;;;;;;28.73;19.80;;;14.60;99.90;;;;;;5011831;28;20677;-80
2021/04/22 07:23:14;;;;;;;26.60;19.63;;;14.80;99.90;;;;;;5012114;28;20681;-80
2021/04/22 07:25:43;;;;;;;25.93;20.10;;;14.80;99.90;;;;;;5014841;28;20624;-79
2021/04/22 07:28:10;;;;;;;26.40;20.27;;;15.00;99.90;;;;;;5015793;28;20339;-80
2021/04/22 07:30:37;;;;;;;25.90;19.40;;;14.80;99.90;;;;;;5028290;28;20647;-80
2021/04/22 07:33:04;;;;;;;25.93;19.73;;;15.20;99.90;;;;;;5035044;28;20695;-80
2021/04/22 07:35:30;;;;;;;26.05;18.90;;;16.10;99.90;;;;;;5034676;28;20240;-80
2021/04/22 07:37:57;;;;;;;27.25;19.02;;;15.60;99.90;;;;;;5033594;28;20200;-80
2021/04/22 07:40:29;;;;;;;24.40;18.75;;;15.30;99.90;;;;;;5034922;28;20287;-80
2021/04/22 07:42:56;;;;;;;25.08;18.50;;;15.30;99.90;;;;;;5019430;28;20339;-80
2021/04/22 07:45:25;;;;;;;24.48;19.15;;;15.70;99.90;;;;;;5026584;28;20412;-80
2021/04/22 07:47:52;;;;;;;23.90;19.83;;;15.30;99.90;;;;;;5015517;28;20395;-80
2021/04/22 07:50:20;;;;;;;27.48;19.50;;;15.10;99.90;;;;;;5022373;28;20585;-80
2021/04/22 07:52:46;;;;;;;26.35;19.55;;;15.30;99.90;;;;;;5033838;28;20729;-80
2021/04/22 07:55:15;;;;;;;25.73;19.27;;;15.50;99.90;;;;;;5017900;28;20292;-80
2021/04/22 07:57:42;;;;;;;24.88;18.23;;;15.70;99.90;;;;;;5020007;28;20201;-80
2021/04/22 08:00:12;;;;;;;26.08;19.00;;;15.40;99.90;;;;;;5021569;28;20304;-80
2021/04/22 08:02:39;;;;;;;25.63;19.23;;;15.80;99.90;;;;;;5014724;28;20243;-79
2021/04/22 08:05:07;;;;;;;26.58;19.50;;;15.50;99.90;;;;;;5029380;28;20295;-80
2021/04/22 08:07:34;;;;;;;23.90;19.38;;;16.20;99.90;;;;;;5018347;28;20284;-80
2021/04/22 08:10:00;;;;;;;25.13;19.30;;;16.00;99.90;;;;;;5014629;28;20291;-79
2021/04/22 08:12:27;;;;;;;24.90;18.73;;;16.20;99.90;;;;;;5023640;28;20323;-80
2021/04/22 08:14:58;;;;;;;25.75;19.23;;;17.00;99.90;;;;;;5027980;28;20208;-80
2021/04/22 08:17:24;;;;;;;24.73;18.55;;;17.20;99.90;;;;;;5034001;28;20200;-80
2021/04/22 08:19:51;;;;;;;25.40;19.40;;;16.60;99.90;;;;;;5014706;28;20220;-80
2021/04/22 08:22:17;;;;;;;24.75;18.60;;;17.50;99.90;;;;;;5024184;28;20354;-77
2021/04/22 08:24:44;;;;;;;23.05;18.58;;;16.40;99.90;;;;;;5026616;28;20212;-77
2021/04/22 08:27:10;;;;;;;25.13;19.38;;;16.80;99.90;;;;;;5014221;28;20229;-77
2021/04/22 08:29:36;;;;;;;25.92;19.05;;;16.10;99.90;;;;;;5016377;28;20205;-78
2021/04/22 08:32:05;;;;;;;23.05;18.10;;;16.40;99.90;;;;;;5026251;28;20673;-78
2021/04/22 08:34:38;;;;;;;25.27;18.63;;;17.10;99.90;;;;;;5008564;28;20284;-79
2021/04/22 08:37:05;;;;;;;26.23;19.95;;;17.70;99.90;;;;;;5014534;28;20193;-78
2021/04/22 08:39:31;;;;;;;29.73;20.02;;;16.40;99.90;;;;;;5016445;28;20664;-78
2021/04/22 08:41:58;;;;;;;27.95;19.35;;;16.20;99.90;;;;;;5013128;28;20212;-78
2021/04/22 08:44:25;;;;;;;25.35;19.60;;;16.80;99.90;;;;;;5018589;28;20300;-78
2021/04/22 08:46:53;;;;;;;28.27;19.00;;;17.10;99.90;;;;;;5017778;28;20386;-80
2021/04/22 08:49:21;;;;;;;28.40;19.90;;;16.80;99.90;;;;;;5022470;28;20284;-79
2021/04/22 08:51:47;;;;;;;27.23;19.60;;;16.70;99.90;;;;;;5016054;28;20239;-81
2021/04/22 08:54:15;;;;;;;26.85;19.65;;;17.40;99.90;;;;;;5013661;28;20288;-81
2021/04/22 08:56:44;;;;;;;25.88;19.42;;;16.80;99.90;;;;;;5013282;28;20236;-81
2021/04/22 08:59:11;;;;;;;27.83;19.30;;;16.20;99.90;;;;;;5014686;28;20228;-81
2021/04/22 09:01:38;;;;;;;26.20;19.75;;;17.20;99.90;;;;;;5018651;28;20742;-80
2021/04/22 09:07:08;;;;;;;27.13;19.55;;;18.70;99.90;;;;;;5001077;28;20232;-77
2021/04/22 09:10:13;;;;;;;27.63;18.90;;;18.70;99.90;;;;;;5013756;28;20236;-78
2021/04/22 09:12:55;;;;;;;26.48;19.23;;;19.00;99.90;;;;;;4988303;28;21049;-78
2021/04/22 09:15:22;;;;;;;31.35;19.50;;;18.50;99.90;;;;;;4995310;28;20668;-77
2021/04/22 09:17:56;;;;;;;27.73;20.13;;;19.80;99.90;;;;;;5011855;28;20288;-85
2021/04/22 09:20:28;;;;;;;26.98;20.30;;;18.90;99.90;;;;;;5013216;28;20311;-78
2021/04/22 09:22:55;;;;;;;26.63;18.95;;;18.40;99.90;;;;;;5013672;28;20193;-78
2021/04/22 09:25:28;;;;;;;24.60;19.50;;;18.90;99.90;;;;;;5017915;28;20284;-78
2021/04/22 09:28:09;;;;;;;27.65;19.02;;;19.10;99.90;;;;;;5020415;28;20201;-78
2021/04/22 09:30:47;;;;;;;26.95;19.48;;;19.70;99.90;;;;;;5010514;28;20245;-77
2021/04/22 09:33:32;;;;;;;25.77;19.58;;;19.00;99.90;;;;;;5014591;28;20681;-78
2021/04/22 09:36:07;;;;;;;25.75;19.33;;;19.90;99.90;;;;;;5016967;28;20193;-78
2021/04/22 09:38:35;;;;;;;26.08;19.80;;;19.60;99.90;;;;;;5021898;28;20256;-78
2021/04/22 09:41:10;;;;;;;26.08;20.70;;;20.20;99.90;;;;;;5016683;28;20225;-78
2021/04/22 09:43:37;;;;;;;26.75;19.60;;;20.40;99.90;;;;;;5011651;28;20905;-77
2021/04/22 09:46:04;;;;;;;24.92;19.60;;;20.40;99.90;;;;;;5016989;28;20291;-77
2021/04/22 09:48:32;;;;;;;24.77;19.27;;;20.40;99.90;;;;;;5027683;28;20192;-78
2021/04/22 09:51:02;;;;;;;25.48;19.58;;;19.60;99.90;;;;;;5007552;28;20196;-78
2021/04/22 09:53:29;;;;;;;25.65;18.95;;;20.10;99.90;;;;;;5014136;28;20568;-78
2021/04/22 09:55:59;;;;;;;26.02;20.02;;;20.60;99.90;;;;;;5021027;28;20197;-78
2021/04/22 09:58:27;;;;;;;26.13;19.38;;;20.70;99.90;;;;;;5018963;28;20873;-79
2021/04/22 10:00:54;;;;;;;21.52;18.23;;;21.20;99.90;;;;;;4989480;28;20233;-78
2021/04/22 10:03:20;;;;;;;25.67;18.80;;;20.70;99.90;;;;;;5019952;28;20316;-78
2021/04/22 10:05:56;;;;;;;25.52;20.08;;;21.10;99.90;;;;;;5018527;28;20287;-78
2021/04/22 10:08:22;;;;;;;26.35;21.08;;;20.70;99.90;;;;;;5011210;28;20295;-79
2021/04/22 10:10:59;;;;;;;25.25;18.95;;;20.80;99.90;;;;;;5017517;28;20374;-77
2021/04/22 10:13:27;;;;;;;27.65;19.85;;;20.60;99.90;;;;;;5015832;28;20271;-76
2021/04/22 10:15:54;;;;;;;26.45;19.08;;;20.40;99.90;;;;;;5020604;28;20231;-76
2021/04/22 10:18:22;;;;;;;25.15;20.00;;;20.80;99.90;;;;;;5019285;28;20283;-76
2021/04/22 10:20:49;;;;;;;24.77;19.25;;;20.80;99.90;;;;;;5015625;28;20200;-76
2021/04/22 10:23:16;;;;;;;22.70;19.05;;;21.50;99.90;;;;;;5018003;28;20251;-77
2021/04/22 10:25:44;;;;;;;25.38;18.80;;;21.80;99.90;;;;;;5018383;28;20295;-76
2021/04/22 10:28:13;;;;;;;26.77;20.10;;;22.80;99.90;;;;;;5023289;28;20690;-77
2021/04/22 10:30:42;;;;;;;25.83;20.38;;;21.60;99.90;;;;;;5015455;28;20201;-77
2021/04/22 10:33:09;;;;;;;27.77;19.85;;;21.50;99.90;;;;;;5023779;28;20284;-77
2021/04/22 10:35:39;;;;;;;27.52;20.55;;;21.10;99.90;;;;;;5020203;28;20232;-78
2021/04/22 10:38:06;;;;;;;25.70;20.23;;;20.50;99.90;;;;;;5015069;28;20225;-77
2021/04/22 10:40:35;;;;;;;25.73;19.75;;;21.00;99.90;;;;;;5024268;28;20303;-77
2021/04/22 10:43:04;;;;;;;25.05;20.48;;;21.20;99.90;;;;;;5006719;28;20228;-77
2021/04/22 10:45:33;;;;;;;26.45;20.85;;;21.00;99.90;;;;;;5020137;28;20292;-78
2021/04/22 10:47:59;;;;;;;24.25;20.30;;;21.00;99.90;;;;;;5020590;28;20193;-78
2021/04/22 10:50:28;;;;;;;25.05;20.63;;;20.70;99.90;;;;;;5017988;28;20279;-78
2021/04/22 10:52:55;;;;;;;26.63;20.08;;;20.40;99.90;;;;;;5023538;28;21010;-77
2021/04/22 10:55:24;;;;;;;28.52;20.67;;;21.60;99.90;;;;;;5015781;28;20201;-77
2021/04/22 10:57:51;;;;;;;23.58;19.08;;;21.20;99.90;;;;;;5023159;28;20280;-80
2021/04/22 11:00:20;;;;;;;25.65;20.83;;;22.30;99.90;;;;;;5030508;28;20252;-78
2021/04/22 11:02:50;;;;;;;28.60;21.45;;;21.70;99.90;;;;;;5019966;28;20239;-77
2021/04/22 11:05:19;;;;;;;24.65;19.73;;;21.40;99.90;;;;;;5028926;28;20371;-77
2021/04/22 11:07:58;;;;;;;27.65;20.55;;;22.20;99.90;;;;;;5026637;28;20203;-77
2021/04/22 11:10:33;;;;;;;23.73;20.98;;;22.40;99.90;;;;;;5020416;28;20663;-78
2021/04/22 11:13:10;;;;;;;30.23;21.85;;;21.90;99.90;;;;;;5026982;28;20234;-79
2021/04/22 11:15:36;;;;;;;27.48;21.20;;;21.40;99.90;;;;;;5020959;28;20245;-79
2021/04/22 11:18:10;;;;;;;26.90;21.02;;;21.60;99.90;;;;;;5022719;28;20282;-78
2021/04/22 11:20:41;;;;;;;30.48;21.50;;;21.60;99.90;;;;;;5019765;28;20222;-79
2021/04/22 11:23:15;;;;;;;26.15;22.23;;;22.10;99.90;;;;;;5025587;28;20402;-79
2021/04/22 11:25:49;;;;;;;28.90;21.40;;;22.30;99.90;;;;;;5033914;28;20203;-78
2021/04/22 11:28:17;;;;;;;26.73;22.40;;;22.00;99.90;;;;;;5019722;28;20745;-78
2021/04/22 11:30:44;;;;;;;28.25;21.95;;;21.20;99.90;;;;;;5024429;28;20585;-80
2021/04/22 11:33:13;;;;;;;26.92;21.20;;;22.10;99.90;;;;;;5015007;28;20207;-79
2021/04/22 11:35:39;;;;;;;30.15;22.05;;;21.90;99.90;;;;;;5021322;28;20220;-79
2021/04/22 11:38:07;;;;;;;30.15;22.88;;;21.60;99.90;;;;;;5026942;28;20314;-79
2021/04/22 11:40:41;;;;;;;29.30;22.17;;;21.70;99.90;;;;;;5022754;28;20232;-79
2021/04/22 11:43:20;;;;;;;28.13;21.38;;;21.40;99.90;;;;;;5027592;28;20224;-78
2021/04/22 11:45:51;;;;;;;25.67;21.25;;;21.70;99.90;;;;;;5034309;28;20224;-78
2021/04/22 11:48:20;;;;;;;26.70;21.85;;;21.70;99.90;;;;;;5032702;28;20196;-79
2021/04/22 11:50:49;;;;;;;25.20;21.85;;;21.90;99.90;;;;;;5027420;28;20221;-80
2021/04/22 11:53:16;;;;;;;26.92;22.60;;;21.60;99.90;;;;;;5014819;28;20280;-81
2021/04/22 11:55:47;;;;;;;25.35;22.17;;;21.60;99.90;;;;;;5020612;28;20231;-80
2021/04/22 11:58:16;;;;;;;27.27;21.80;;;22.00;99.90;;;;;;5023824;28;20197;-78
2021/04/22 12:00:44;;;;;;;26.05;20.45;;;22.10;99.90;;;;;;5020348;28;20312;-78
2021/04/22 12:03:13;;;;;;;30.98;21.60;;;22.70;99.90;;;;;;5015896;28;20221;-78
2021/04/22 12:05:42;;;;;;;25.13;21.67;;;22.10;99.90;;;;;;5012585;28;20220;-78
2021/04/22 12:08:10;;;;;;;25.00;22.27;;;22.50;99.90;;;;;;5019400;28;20256;-81
2021/04/22 12:10:47;;;;;;;27.02;21.80;;;22.70;99.90;;;;;;5018905;28;20228;-77
2021/04/22 12:13:18;;;;;;;25.40;21.02;;;22.30;99.90;;;;;;5021460;28;20315;-77
2021/04/22 12:15:47;;;;;;;26.67;20.75;;;22.70;99.90;;;;;;5016552;28;20243;-78
2021/04/22 12:18:21;;;;;;;26.80;21.35;;;22.30;99.90;;;;;;5009915;28;20204;-77
2021/04/22 12:20:49;;;;;;;27.08;22.15;;;23.20;99.90;;;;;;5012675;28;20288;-78
2021/04/22 12:23:15;;;;;;;24.52;21.02;;;22.50;99.90;;;;;;5013645;28;20296;-77
2021/04/22 12:25:43;;;;;;;25.75;21.55;;;22.20;99.90;;;;;;5016381;28;20292;-78
2021/04/22 12:28:10;;;;;;;25.17;21.88;;;21.70;99.90;;;;;;5015656;28;20205;-78
2021/04/22 12:30:40;;;;;;;24.42;21.40;;;22.10;99.90;;;;;;5015177;28;20225;-77
2021/04/22 12:33:10;;;;;;;24.02;19.90;;;22.10;99.90;;;;;;5020913;28;20200;-77
2021/04/22 12:35:38;;;;;;;22.98;20.48;;;22.60;99.90;;;;;;5012351;28;20200;-77
2021/04/22 12:38:20;;;;;;;24.05;20.95;;;22.40;99.90;;;;;;5022019;28;20696;-77